createdAt,value
2022-08-24T00:00:22.552Z,65.15
2022-08-24T00:02:51.354Z,65.58
2022-08-24T00:05:21.812Z,65.64
2022-08-24T00:07:52.283Z,65.50
2022-08-24T00:10:22.285Z,65.60
2022-08-24T00:12:51.096Z,66.47
2022-08-24T00:15:19.995Z,68.69
2022-08-24T00:17:48.522Z,68.55
2022-08-24T00:20:17.622Z,68.56
2022-08-24T00:22:46.150Z,68.33
2022-08-24T00:25:17.398Z,68.67
2022-08-24T00:27:45.902Z,68.77
2022-08-24T00:30:18.041Z,70.06
2022-08-24T00:32:48.622Z,70.04
2022-08-24T00:35:19.720Z,69.94
2022-08-24T00:37:49.509Z,70.35
2022-08-24T00:40:23.902Z,70.30
2022-08-24T00:42:54.124Z,70.06
2022-08-24T00:45:24.904Z,70.73
2022-08-24T00:47:59.150Z,71.37
2022-08-24T00:50:37.947Z,71.47
2022-08-24T00:53:12.726Z,72.00
2022-08-24T00:55:46.918Z,71.83
2022-08-24T00:58:20.727Z,71.45
2022-08-24T01:00:55.234Z,71.65
2022-08-24T01:03:24.247Z,71.78
2022-08-24T01:05:52.894Z,72.24
2022-08-24T01:08:23.272Z,72.67
2022-08-24T01:10:56.606Z,72.19
2022-08-24T01:13:26.183Z,72.05
2022-08-24T01:15:59.084Z,72.21
2022-08-24T01:18:46.996Z,73.08
2022-08-24T01:21:19.214Z,73.18
2022-08-24T01:23:51.371Z,73.37
2022-08-24T01:26:23.374Z,72.81
2022-08-24T01:28:58.697Z,72.59
2022-08-24T01:31:28.328Z,72.55
2022-08-24T01:33:57.989Z,72.68
2022-08-24T01:36:34.206Z,72.49
2022-08-24T01:39:09.805Z,72.34
2022-08-24T01:41:38.341Z,72.40
2022-08-24T01:44:06.968Z,72.59
2022-08-24T01:46:35.563Z,72.78
2022-08-24T01:49:04.441Z,72.65
2022-08-24T01:51:33.939Z,72.62
2022-08-24T01:54:05.579Z,73.11
2022-08-24T01:56:35.552Z,73.01
2022-08-24T01:59:07.433Z,73.46
2022-08-24T02:01:39.919Z,73.50
2022-08-24T02:04:10.052Z,73.73
2022-08-24T02:06:39.837Z,74.57
2022-08-24T02:09:09.968Z,74.35
2022-08-24T02:11:39.160Z,74.32
2022-08-24T02:14:08.399Z,74.19
2022-08-24T02:16:36.903Z,74.87
2022-08-24T02:19:05.590Z,75.07
2022-08-24T02:21:34.235Z,76.24
2022-08-24T02:24:02.745Z,76.25
2022-08-24T02:26:32.952Z,76.47
2022-08-24T02:29:03.568Z,77.40
2022-08-24T02:31:33.536Z,80.57
2022-08-24T02:34:02.037Z,79.82
2022-08-24T02:36:31.303Z,78.96
2022-08-24T02:38:59.670Z,77.62
2022-08-24T02:41:28.453Z,77.10
2022-08-24T02:43:58.304Z,77.01
2022-08-24T02:50:32.347Z,75.94
2022-08-24T02:53:00.677Z,75.52
2022-08-24T02:55:29.069Z,75.72
2022-08-24T02:57:57.394Z,75.58
2022-08-24T03:00:27.942Z,74.54
2022-08-24T03:02:56.507Z,74.41
2022-08-24T03:05:26.291Z,74.34
2022-08-24T03:07:54.655Z,74.36
2022-08-24T03:10:23.375Z,74.37
2022-08-24T03:12:52.240Z,73.87
2022-08-24T03:15:23.032Z,73.95
2022-08-24T03:17:52.894Z,74.31
2022-08-24T03:20:23.665Z,74.20
2022-08-24T03:22:52.664Z,74.22
2022-08-24T03:25:24.803Z,74.76
2022-08-24T03:27:53.936Z,75.39
2022-08-24T03:30:22.898Z,75.68
2022-08-24T03:32:52.833Z,76.49
2022-08-24T03:35:22.069Z,75.39
2022-08-24T03:37:51.752Z,75.10
2022-08-24T03:40:24.497Z,75.01
2022-08-24T03:42:54.656Z,74.78
2022-08-24T03:45:23.980Z,74.63
2022-08-24T03:47:53.890Z,75.32
2022-08-24T03:50:24.261Z,74.99
2022-08-24T03:52:53.073Z,74.70
2022-08-24T03:55:21.659Z,74.16
2022-08-24T03:57:50.079Z,73.95
2022-08-24T04:00:19.110Z,74.93
2022-08-24T04:02:47.457Z,75.04
2022-08-24T04:05:17.244Z,74.56
2022-08-24T04:07:45.543Z,75.31
2022-08-24T04:10:14.516Z,75.59
2022-08-24T04:12:42.824Z,75.13
2022-08-24T04:15:13.192Z,75.34
2022-08-24T04:17:41.526Z,75.24
2022-08-24T04:20:11.789Z,74.59
2022-08-24T04:22:41.642Z,74.50
2022-08-24T04:25:12.039Z,74.80
2022-08-24T04:27:42.019Z,75.09
2022-08-24T04:30:14.224Z,75.39
2022-08-24T04:32:43.244Z,75.50
2022-08-24T04:35:12.111Z,75.81
2022-08-24T04:37:41.844Z,75.89
2022-08-24T04:40:12.124Z,76.39
2022-08-24T04:42:40.489Z,76.12
2022-08-24T04:45:11.143Z,76.55
2022-08-24T04:47:39.526Z,76.49
2022-08-24T04:50:09.364Z,76.27
2022-08-24T04:52:38.132Z,76.60
2022-08-24T04:55:08.937Z,76.50
2022-08-24T04:57:37.727Z,76.86
2022-08-24T05:00:09.663Z,75.97
2022-08-24T05:02:44.686Z,75.90
2022-08-24T05:05:13.495Z,74.99
2022-08-24T05:07:41.963Z,72.68
2022-08-24T05:10:12.544Z,70.65
2022-08-24T05:12:42.110Z,68.83
2022-08-24T05:15:11.511Z,67.89
2022-08-24T05:17:41.069Z,67.18
2022-08-24T05:20:12.615Z,66.91
2022-08-24T05:22:40.998Z,65.91
2022-08-24T05:25:11.295Z,65.04
2022-08-24T05:27:39.656Z,64.70
2022-08-24T05:30:09.662Z,63.76
2022-08-24T05:32:38.214Z,63.33
2022-08-24T05:35:09.639Z,63.13
2022-08-24T05:37:39.598Z,63.00
2022-08-24T05:40:14.795Z,61.79
2022-08-24T05:42:43.813Z,62.87
2022-08-24T05:45:13.156Z,63.46
2022-08-24T05:47:41.563Z,65.28
2022-08-24T05:50:10.548Z,65.98
2022-08-24T05:52:39.056Z,66.62
2022-08-24T05:55:09.170Z,68.24
2022-08-24T05:57:39.127Z,70.37
2022-08-24T06:00:10.553Z,72.34
2022-08-24T06:02:38.974Z,73.74
2022-08-24T06:05:08.416Z,74.87
2022-08-24T06:07:36.867Z,74.66
2022-08-24T06:10:32.772Z,72.58
2022-08-24T06:12:55.469Z,69.36
2022-08-24T06:15:24.115Z,64.41
2022-08-24T06:17:52.639Z,61.35
2022-08-24T06:20:21.561Z,58.70
2022-08-24T06:22:49.911Z,57.06
2022-08-24T06:25:36.344Z,56.67
2022-08-24T06:28:06.119Z,55.89
2022-08-24T06:30:34.928Z,56.80
2022-08-24T06:33:04.430Z,56.50
2022-08-24T06:35:33.101Z,56.94
2022-08-24T06:38:01.465Z,60.37
2022-08-24T06:40:30.134Z,61.87
2022-08-24T06:43:05.306Z,63.76
2022-08-24T06:45:34.424Z,61.31
2022-08-24T06:48:02.807Z,60.93
2022-08-24T06:50:31.190Z,56.46
2022-08-24T06:53:00.699Z,56.52
2022-08-24T06:55:29.730Z,55.21
2022-08-24T06:57:59.079Z,54.34
2022-08-24T07:00:28.769Z,54.69
2022-08-24T07:02:57.267Z,56.37
2022-08-24T07:05:25.956Z,51.62
2022-08-24T07:07:54.751Z,49.83
2022-08-24T07:10:23.359Z,50.10
2022-08-24T07:12:56.331Z,49.81
2022-08-24T07:15:25.137Z,51.30
2022-08-24T07:17:54.864Z,54.89
2022-08-24T07:20:23.610Z,50.92
2022-08-24T07:22:52.346Z,49.51
2022-08-24T07:25:21.009Z,52.70
2022-08-24T07:27:49.535Z,51.77
2022-08-24T07:30:26.899Z,49.12
2022-08-24T07:32:58.731Z,52.37
2022-08-24T07:35:28.467Z,51.91
2022-08-24T07:37:57.168Z,50.94
2022-08-24T07:40:27.069Z,49.68
2022-08-24T07:42:58.029Z,46.08
2022-08-24T07:45:28.407Z,49.56
2022-08-24T07:48:05.553Z,46.31
2022-08-24T07:50:33.956Z,46.79
2022-08-24T07:53:02.453Z,43.89
2022-08-24T07:55:30.918Z,43.78
2022-08-24T07:58:02.171Z,42.77
2022-08-24T08:00:30.658Z,46.14
2022-08-24T08:03:02.554Z,41.36
2022-08-24T08:05:31.441Z,44.80
2022-08-24T08:08:00.167Z,44.49
2022-08-24T08:10:31.128Z,39.44
2022-08-24T08:12:59.457Z,40.13
2022-08-24T08:15:28.081Z,44.25
2022-08-24T08:17:57.063Z,41.22
2022-08-24T08:20:27.210Z,43.68
2022-08-24T08:23:13.255Z,41.36
2022-08-24T08:25:46.869Z,37.84
2022-08-24T08:28:25.682Z,41.26
2022-08-24T08:30:55.055Z,39.64
2022-08-24T08:33:23.852Z,39.29
2022-08-24T08:36:02.523Z,40.90
2022-08-24T08:38:31.513Z,38.13
2022-08-24T08:41:26.674Z,44.32
2022-08-24T08:44:02.149Z,40.62
2022-08-24T08:46:50.526Z,39.50
2022-08-24T08:49:57.717Z,36.97
2022-08-24T08:53:05.702Z,38.34
2022-08-24T08:55:41.131Z,38.31
2022-08-24T08:58:25.179Z,42.08
2022-08-24T09:01:04.662Z,39.31
2022-08-24T09:04:12.746Z,39.44
2022-08-24T09:07:12.516Z,40.45
2022-08-24T09:10:04.501Z,40.59
2022-08-24T09:12:49.560Z,38.79
2022-08-24T09:15:53.316Z,38.77
2022-08-24T09:18:41.449Z,37.57
2022-08-24T09:21:42.310Z,37.09
2022-08-24T09:24:27.442Z,37.61
2022-08-24T09:27:07.122Z,39.54
2022-08-24T09:29:49.655Z,38.58
2022-08-24T09:32:51.331Z,40.23
2022-08-24T09:35:27.212Z,37.49
2022-08-24T09:38:02.371Z,39.75
2022-08-24T09:40:45.383Z,42.59
2022-08-24T09:43:45.504Z,36.58
2022-08-24T09:46:39.736Z,36.52
2022-08-24T09:49:37.952Z,37.64
2022-08-24T09:52:42.175Z,35.97
2022-08-24T09:55:40.658Z,39.15
2022-08-24T09:58:20.875Z,37.17
2022-08-24T10:01:03.323Z,38.07
2022-08-24T10:03:56.302Z,36.67
2022-08-24T10:06:39.008Z,38.46
2022-08-24T10:09:41.378Z,37.91
2022-08-24T10:12:22.633Z,36.62
2022-08-24T10:14:57.538Z,39.73
2022-08-24T10:17:41.542Z,38.41
2022-08-24T10:20:23.869Z,35.49
2022-08-24T10:23:07.989Z,35.71
2022-08-24T10:25:41.249Z,37.63
2022-08-24T10:28:41.345Z,36.89
2022-08-24T10:31:13.287Z,36.79
2022-08-24T10:34:00.865Z,36.13
2022-08-24T10:36:57.996Z,36.88
2022-08-24T10:40:02.186Z,35.68
2022-08-24T10:43:30.841Z,35.22
2022-08-24T10:46:37.652Z,36.69
2022-08-24T10:49:50.678Z,39.06
2022-08-24T10:52:52.594Z,33.48
2022-08-24T10:55:24.850Z,34.97
2022-08-24T10:58:20.633Z,35.71
2022-08-24T11:00:49.835Z,39.18
2022-08-24T11:03:28.036Z,35.54
2022-08-24T11:05:59.135Z,37.04
2022-08-24T11:08:30.153Z,36.02
2022-08-24T11:11:10.051Z,37.68
2022-08-24T11:13:51.079Z,36.20
2022-08-24T11:16:26.877Z,34.74
2022-08-24T11:18:58.204Z,34.75
2022-08-24T11:21:40.811Z,35.21
2022-08-24T11:24:13.603Z,38.57
2022-08-24T11:26:55.437Z,37.37
2022-08-24T11:29:30.660Z,40.05
2022-08-24T11:32:00.379Z,41.04
2022-08-24T11:34:39.637Z,36.27
2022-08-24T11:37:16.069Z,36.46
2022-08-24T11:39:44.718Z,35.81
2022-08-24T11:42:29.761Z,33.61
2022-08-24T11:45:07.818Z,36.38
2022-08-24T11:48:05.589Z,38.46
2022-08-24T11:50:42.073Z,34.40
2022-08-24T11:53:23.918Z,33.68
2022-08-24T11:56:00.991Z,35.18
2022-08-24T11:58:42.098Z,37.01
2022-08-24T12:01:19.903Z,34.44
2022-08-24T12:04:05.950Z,35.38
2022-08-24T12:06:46.178Z,34.83
2022-08-24T12:09:28.322Z,34.48
2022-08-24T12:12:09.685Z,34.80
2022-08-24T12:14:45.456Z,34.96
2022-08-24T12:17:20.440Z,36.25
2022-08-24T12:19:54.105Z,33.78
2022-08-24T12:22:25.003Z,34.89
2022-08-24T12:24:57.607Z,35.63
2022-08-24T12:27:29.908Z,32.84
2022-08-24T12:30:05.388Z,33.65
2022-08-24T12:32:40.824Z,32.94
2022-08-24T12:35:19.988Z,33.10
2022-08-24T12:37:53.126Z,35.19
2022-08-24T12:40:33.877Z,31.82
2022-08-24T12:43:06.524Z,33.29
2022-08-24T12:45:35.531Z,33.30
2022-08-24T12:48:11.868Z,38.76
2022-08-24T12:50:50.970Z,35.55
2022-08-24T12:54:05.901Z,41.73
2022-08-24T12:56:58.996Z,36.27
2022-08-24T12:59:30.952Z,40.49
2022-08-24T13:02:03.020Z,38.61
2022-08-24T13:04:41.456Z,35.63
2022-08-24T13:07:27.433Z,39.25
2022-08-24T13:10:09.428Z,41.52
2022-08-24T13:13:11.355Z,39.67
2022-08-24T13:16:02.949Z,35.69
2022-08-24T13:18:51.635Z,36.55
2022-08-24T13:21:38.276Z,36.87
2022-08-24T13:24:42.861Z,42.12
2022-08-24T13:27:49.928Z,42.17
2022-08-24T13:30:27.038Z,37.22
2022-08-24T13:33:09.893Z,34.56
2022-08-24T13:36:00.535Z,38.40
2022-08-24T13:38:59.410Z,33.47
2022-08-24T13:41:39.586Z,34.85
2022-08-24T13:44:18.024Z,34.44
2022-08-24T13:46:55.966Z,34.87
2022-08-24T13:49:54.236Z,32.32
2022-08-24T13:52:32.847Z,31.06
2022-08-24T13:55:22.803Z,32.50
2022-08-24T13:58:04.880Z,32.34
2022-08-24T14:00:44.171Z,38.50
2022-08-24T14:03:50.977Z,33.11
2022-08-24T14:06:28.747Z,33.61
2022-08-24T14:09:16.911Z,35.22
2022-08-24T14:12:06.598Z,39.26
2022-08-24T14:15:03.629Z,33.93
2022-08-24T14:17:55.138Z,40.47
2022-08-24T14:20:51.099Z,41.62
2022-08-24T14:23:31.266Z,39.95
2022-08-24T14:26:38.167Z,34.90
2022-08-24T14:29:31.514Z,34.72
2022-08-24T14:32:29.488Z,32.88
2022-08-24T14:35:15.418Z,33.79
2022-08-24T14:38:02.418Z,32.59
2022-08-24T14:40:37.479Z,31.82
2022-08-24T14:43:28.561Z,31.60
2022-08-24T14:46:12.375Z,34.05
2022-08-24T14:48:49.283Z,32.84
2022-08-24T14:51:37.736Z,33.45
2022-08-24T14:54:20.585Z,32.33
2022-08-24T14:57:00.682Z,32.85
2022-08-24T14:59:45.600Z,30.22
2022-08-24T15:02:59.179Z,38.20
2022-08-24T15:05:41.343Z,31.76
2022-08-24T15:08:15.939Z,33.20
2022-08-24T15:10:56.210Z,32.45
2022-08-24T15:13:29.817Z,31.81
2022-08-24T15:16:04.767Z,30.65
2022-08-24T15:18:39.411Z,33.27
2022-08-24T15:21:18.434Z,36.99
2022-08-24T15:24:09.332Z,32.55
2022-08-24T15:26:56.288Z,36.47
2022-08-24T15:29:27.672Z,34.39
2022-08-24T15:32:03.806Z,29.72
2022-08-24T15:34:39.018Z,36.02
2022-08-24T15:37:08.756Z,33.52
2022-08-24T15:39:38.161Z,31.95
2022-08-24T15:42:13.509Z,35.42
2022-08-24T15:44:45.023Z,32.08
2022-08-24T15:47:24.981Z,30.84
2022-08-24T15:49:57.654Z,30.96
2022-08-24T15:52:48.100Z,35.67
2022-08-24T15:55:39.313Z,33.41
2022-08-24T15:58:31.607Z,31.83
2022-08-24T16:01:36.831Z,31.07
2022-08-24T16:04:09.521Z,33.42
2022-08-24T16:06:42.324Z,34.28
2022-08-24T16:09:15.558Z,32.67
2022-08-24T16:11:49.731Z,34.08
2022-08-24T16:14:32.901Z,31.46
2022-08-24T16:17:18.699Z,31.45
2022-08-24T16:19:52.960Z,33.08
2022-08-24T16:22:30.870Z,31.23
2022-08-24T16:25:22.590Z,30.94
2022-08-24T16:27:58.633Z,30.98
2022-08-24T16:30:43.657Z,32.65
2022-08-24T16:33:32.801Z,33.31
2022-08-24T16:36:03.384Z,39.30
2022-08-24T16:38:34.056Z,36.93
2022-08-24T16:41:03.801Z,32.93
2022-08-24T16:43:32.604Z,37.09
2022-08-24T16:46:05.011Z,32.26
2022-08-24T16:48:33.838Z,39.90
2022-08-24T16:51:02.703Z,39.17
2022-08-24T16:53:31.401Z,38.46
2022-08-24T16:56:00.432Z,39.78
2022-08-24T16:58:33.180Z,34.08
2022-08-24T17:01:03.375Z,34.54
2022-08-24T17:03:32.008Z,40.07
2022-08-24T17:06:00.812Z,33.91
2022-08-24T17:08:29.716Z,38.23
2022-08-24T17:10:58.400Z,34.22
2022-08-24T17:13:48.525Z,37.45
2022-08-24T17:16:17.196Z,39.43
2022-08-24T17:18:45.955Z,36.94
2022-08-24T17:21:14.731Z,34.09
2022-08-24T17:23:44.314Z,34.21
2022-08-24T17:26:20.950Z,33.60
2022-08-24T17:28:51.796Z,33.47
2022-08-24T17:31:24.715Z,39.53
2022-08-24T17:33:54.582Z,33.89
2022-08-24T17:36:25.435Z,39.98
2022-08-24T17:38:57.430Z,34.45
2022-08-24T17:41:27.865Z,37.32
2022-08-24T17:43:57.228Z,35.43
2022-08-24T17:46:27.294Z,36.32
2022-08-24T17:48:57.594Z,40.58
2022-08-24T17:51:26.300Z,37.96
2022-08-24T17:53:55.002Z,40.91
2022-08-24T17:56:23.823Z,40.97
2022-08-24T17:59:09.920Z,39.02
2022-08-24T18:01:39.852Z,37.47
2022-08-24T18:04:08.593Z,35.93
2022-08-24T18:06:37.295Z,37.44
2022-08-24T18:09:08.749Z,37.22
2022-08-24T18:11:37.367Z,36.93
2022-08-24T18:14:06.002Z,36.93
2022-08-24T18:16:34.743Z,37.03
2022-08-24T18:19:04.907Z,35.97
2022-08-24T18:21:33.488Z,38.05
2022-08-24T18:24:02.060Z,37.93
2022-08-24T18:26:32.684Z,38.48
2022-08-24T18:29:09.950Z,38.88
2022-08-24T18:31:39.835Z,38.98
2022-08-24T18:34:11.408Z,39.39
2022-08-24T18:36:39.976Z,39.54
2022-08-24T18:39:08.597Z,39.95
2022-08-24T18:41:41.123Z,40.28
2022-08-24T18:44:15.495Z,40.56
2022-08-24T18:46:44.722Z,40.17
2022-08-24T18:49:14.887Z,41.19
2022-08-24T18:51:44.285Z,42.53
2022-08-24T18:54:16.552Z,42.65
2022-08-24T18:56:45.375Z,40.38
2022-08-24T18:59:15.758Z,43.02
2022-08-24T19:02:03.977Z,43.19
2022-08-24T19:04:34.469Z,43.70
2022-08-24T19:07:03.063Z,43.58
2022-08-24T19:09:34.360Z,43.70
2022-08-24T19:12:04.708Z,43.91
2022-08-24T19:14:33.701Z,43.27
2022-08-24T19:17:02.432Z,43.75
2022-08-24T19:19:31.079Z,43.95
2022-08-24T19:22:02.554Z,46.81
2022-08-24T19:24:32.526Z,46.05
2022-08-24T19:27:02.438Z,44.97
2022-08-24T19:29:55.440Z,46.71
2022-08-24T19:32:23.691Z,46.37
2022-08-24T19:34:52.888Z,46.33
2022-08-24T19:37:23.451Z,46.71
2022-08-24T19:39:53.281Z,46.62
2022-08-24T19:42:22.897Z,46.68
2022-08-24T19:45:12.022Z,45.43
2022-08-24T19:47:40.835Z,46.44
2022-08-24T19:50:10.724Z,46.91
2022-08-24T19:52:41.414Z,47.05
2022-08-24T19:55:11.398Z,41.48
2022-08-24T19:57:44.831Z,47.16
2022-08-24T20:00:30.605Z,47.51
2022-08-24T20:03:00.794Z,47.27
2022-08-24T20:05:30.105Z,47.03
2022-08-24T20:08:01.342Z,47.31
2022-08-24T20:10:30.658Z,47.12
2022-08-24T20:12:59.319Z,47.47
2022-08-24T20:15:28.219Z,47.54
2022-08-24T20:17:59.061Z,47.75
2022-08-24T20:20:29.093Z,47.42
2022-08-24T20:23:03.089Z,47.55
2022-08-24T20:25:32.015Z,47.50
2022-08-24T20:28:27.736Z,47.65
2022-08-24T20:30:51.284Z,47.26
2022-08-24T20:33:23.778Z,47.02
2022-08-24T20:35:52.996Z,47.15
2022-08-24T20:38:23.548Z,46.92
2022-08-24T20:40:53.112Z,47.28
2022-08-24T20:43:22.238Z,47.35
2022-08-24T20:45:52.885Z,47.06
2022-08-24T20:48:27.136Z,46.71
2022-08-24T20:50:56.384Z,46.67
2022-08-24T20:53:26.821Z,47.13
2022-08-24T20:55:58.750Z,47.09
2022-08-24T20:58:27.662Z,46.35
2022-08-24T21:00:56.313Z,46.72
2022-08-24T21:03:25.058Z,46.49
2022-08-24T21:05:53.717Z,46.69
2022-08-24T21:08:22.536Z,46.66
2022-08-24T21:10:52.544Z,46.79
2022-08-24T21:13:21.809Z,46.80
2022-08-24T21:15:52.348Z,46.24
2022-08-24T21:18:21.541Z,46.23
2022-08-24T21:21:03.278Z,46.65
2022-08-24T21:23:33.601Z,46.41
2022-08-24T21:26:07.323Z,46.24
2022-08-24T21:28:38.023Z,47.26
2022-08-24T21:31:06.642Z,46.54
2022-08-24T21:33:53.019Z,45.49
2022-08-24T21:36:24.567Z,44.53
2022-08-24T21:38:54.650Z,44.58
2022-08-24T21:41:24.584Z,45.20
2022-08-24T21:43:53.662Z,45.05
2022-08-24T21:46:24.041Z,46.17
2022-08-24T21:48:52.388Z,45.60
2022-08-24T21:51:20.719Z,46.43
2022-08-24T21:53:49.036Z,46.42
2022-08-24T21:56:23.755Z,45.76
2022-08-24T21:58:54.180Z,46.46
2022-08-24T22:01:22.699Z,46.90
2022-08-24T22:03:51.071Z,45.93
2022-08-24T22:06:19.610Z,46.80
2022-08-24T22:08:48.136Z,46.61
2022-08-24T22:11:20.148Z,46.02
2022-08-24T22:13:48.675Z,46.31
2022-08-24T22:16:18.859Z,44.04
2022-08-24T22:18:47.197Z,44.19
2022-08-24T22:21:18.966Z,45.35
2022-08-24T22:23:47.412Z,44.42
2022-08-24T22:26:16.336Z,45.42
2022-08-24T22:28:44.677Z,45.50
2022-08-24T22:31:19.972Z,45.32
2022-08-24T22:33:48.799Z,45.19
2022-08-24T22:36:18.070Z,45.88
2022-08-24T22:38:47.367Z,46.16
2022-08-24T22:41:16.196Z,46.30
2022-08-24T22:44:02.447Z,45.57
2022-08-24T22:46:32.165Z,45.64
2022-08-24T22:49:01.543Z,45.52
2022-08-24T22:51:30.323Z,45.80
2022-08-24T22:53:59.423Z,45.61
2022-08-24T22:56:30.701Z,44.34
2022-08-24T22:58:59.293Z,45.09
2022-08-24T23:01:33.128Z,44.73
2022-08-24T23:04:04.820Z,44.82
2022-08-24T23:06:33.551Z,44.97
2022-08-24T23:09:01.905Z,44.93
2022-08-24T23:11:32.357Z,44.88
2022-08-24T23:14:03.279Z,45.13
2022-08-24T23:16:35.911Z,45.13
2022-08-24T23:19:21.954Z,45.13
2022-08-24T23:21:50.440Z,45.38
2022-08-24T23:24:18.791Z,45.71
2022-08-24T23:26:47.332Z,45.94
2022-08-24T23:29:17.082Z,46.23
2022-08-24T23:31:47.435Z,46.38
2022-08-24T23:34:17.329Z,47.04
2022-08-24T23:36:46.117Z,47.10
2022-08-24T23:39:14.645Z,47.40
2022-08-24T23:41:47.324Z,47.15
2022-08-24T23:44:20.584Z,47.50
2022-08-24T23:46:51.421Z,47.59
2022-08-24T23:49:22.548Z,47.65
2022-08-24T23:51:52.657Z,47.78
2022-08-24T23:54:22.399Z,47.96
2022-08-24T23:56:52.825Z,47.94
2022-08-24T23:59:24.356Z,48.12
